Weather History for Gwinner, ND

Change the Weather History Date:

Tuesday, March 13, 2012

  Actual Average (KP67) Record (KP67)
Temperature  
Mean Temperature 47 °F -  
Max Temperature 62 °F 25 °F 36 °F (1998)
Min Temperature 32 °F 8 °F 8 °F (1998)
Degree Days  
Heating Degree Days 18    
Moisture  
Dew Point 39 °F    
Average Humidity 83    
Maximum Humidity 100    
Minimum Humidity 55    
Precipitation  
Precipitation 0.00 in - - ()
Sea Level Pressure  
Sea Level Pressure 29.81 in    
Wind  
Wind Speed 10 mph (South)    
Max Wind Speed 22 mph    
Max Gust Speed 29 mph    
Visibility 10 miles    
Events      
Averages and records for this station are not official NWS values.
T = Trace of Precipitation, MM = Missing Value Source: NWS Daily Summary

Daily Weather History Graph

Daily Weather History Graph

Search for Another Location

Airport:

Trip Planner

Search our weather history database for the weather conditions in past years. The results will help you decide how hot, cold, wet, or windy it might be!

Date:

Astronomy

Mar. 13, 2012 Rise Set
Actual Time 7:46 AM CDT 7:34 PM CDT
Civil Twilight 7:16 AM CDT 8:04 PM CDT
Nautical Twilight 6:41 AM CDT 8:39 PM CDT
Astronomical Twilight 6:05 AM CDT 9:14 PM CDT
Moon 1:29 AM CDT (3/13) 10:38 AM CDT (3/13)
Length of Visible Light 12h 48m
Length of Day
11h 48m
Waning Gibbous, 65% of the Moon is Illuminated
Mar 13
Waning Gibbous
Mar 14
Last Quarter
Mar 22
New
Mar 30
First Quarter
Apr 6
Full

Hourly Weather History & Observations

Time (CDT) Temp. Windchill Dew Point Humidity Pressure Visibility Wind Dir Wind Speed Gust Speed Precip Events Conditions
12:35 AM 35.6 °F 28.6 °F 32.0 °F 87% 29.90 in 10.0 mi West 9.2 mph - 0.00 in   Clear
12:55 AM 37.4 °F 30.8 °F 32.0 °F 81% 29.91 in 10.0 mi West 9.2 mph - 0.00 in   Clear
1:15 AM 35.6 °F 29.2 °F 32.0 °F 87% 29.91 in 10.0 mi WSW 8.1 mph - 0.00 in   Clear
1:35 AM 33.8 °F 26.4 °F 32.0 °F 93% 29.91 in 10.0 mi WSW 9.2 mph - 0.00 in   Clear
1:55 AM 33.8 °F 27.7 °F 32.0 °F 93% 29.90 in 10.0 mi WSW 6.9 mph - 0.00 in   Clear
2:15 AM 32.0 °F 25.6 °F 32.0 °F 100% 29.91 in 10.0 mi WSW 6.9 mph - 0.00 in   Clear
2:35 AM 33.8 °F 26.4 °F 32.0 °F 93% 29.91 in 10.0 mi West 9.2 mph - 0.00 in   Clear
2:55 AM 33.8 °F 27.0 °F 32.0 °F 93% 29.91 in 10.0 mi WSW 8.1 mph - 0.00 in   Clear
3:15 AM 33.8 °F 28.6 °F 32.0 °F 93% 29.91 in 10.0 mi West 5.8 mph - 0.00 in   Clear
3:35 AM 33.8 °F 27.7 °F 32.0 °F 93% 29.91 in 10.0 mi SW 6.9 mph - 0.00 in   Clear
3:55 AM 32.0 °F 24.2 °F 32.0 °F 100% 29.91 in 10.0 mi SSW 9.2 mph - 0.00 in   Clear
4:15 AM 32.0 °F 26.4 °F 32.0 °F 100% 29.91 in 10.0 mi SW 5.8 mph - 0.00 in   Clear
4:35 AM 33.8 °F 27.7 °F 33.8 °F 100% 29.91 in 10.0 mi SW 6.9 mph - 0.00 in   Clear
4:55 AM 33.8 °F 26.4 °F 33.8 °F 100% 29.92 in 10.0 mi SW 9.2 mph - 0.00 in   Clear
5:15 AM 33.8 °F 27.7 °F 32.0 °F 93% 29.92 in 10.0 mi SW 6.9 mph - 0.00 in   Clear
5:35 AM 33.8 °F 26.4 °F 32.0 °F 93% 29.92 in 10.0 mi SW 9.2 mph - 0.00 in   Clear
5:55 AM 33.8 °F 26.4 °F 32.0 °F 93% 29.93 in 10.0 mi SSW 9.2 mph - 0.00 in   Clear
6:15 AM 33.8 °F 27.0 °F 32.0 °F 93% 29.92 in 10.0 mi SSW 8.1 mph - 0.00 in   Clear
6:35 AM 33.8 °F 27.0 °F 32.0 °F 93% 29.92 in 10.0 mi SSW 8.1 mph - 0.00 in   Clear
6:55 AM 33.8 °F 27.7 °F 32.0 °F 93% 29.91 in 10.0 mi SSW 6.9 mph - 0.00 in   Clear
7:15 AM 33.8 °F 27.0 °F 32.0 °F 93% 29.91 in 10.0 mi SSW 8.1 mph - 0.00 in   Clear
7:35 AM 33.8 °F 27.0 °F 32.0 °F 93% 29.91 in 10.0 mi SSW 8.1 mph - 0.00 in   Clear
8:15 AM 33.8 °F 28.6 °F 32.0 °F 93% 29.91 in 10.0 mi SW 5.8 mph - 0.00 in   Clear
8:35 AM 35.6 °F 31.7 °F 32.0 °F 87% 29.90 in 10.0 mi South 4.6 mph - 0.00 in   Clear
8:55 AM 35.6 °F 30.7 °F 33.8 °F 93% 29.91 in 10.0 mi SSE 5.8 mph - 0.00 in   Clear
9:15 AM 37.4 °F 33.8 °F 33.8 °F 87% 29.90 in 10.0 mi SSE 4.6 mph - 0.00 in   Clear
9:35 AM 39.2 °F - 33.8 °F 81% 29.90 in 10.0 mi Calm Calm - 0.00 in   Clear
10:15 AM 41.0 °F 35.8 °F 35.6 °F 81% 29.90 in 10.0 mi ESE 8.1 mph - 0.00 in   Clear
10:35 AM 44.6 °F 39.7 °F 33.8 °F 66% 29.90 in 10.0 mi ESE 9.2 mph - 0.00 in   Clear
10:55 AM 44.6 °F 39.2 °F 35.6 °F 71% 29.89 in 10.0 mi ESE 10.4 mph - 0.00 in   Clear
11:35 AM 46.4 °F 41.1 °F 37.4 °F 71% 29.87 in 10.0 mi SE 11.5 mph - 0.00 in   Clear
11:55 AM 50.0 °F - 37.4 °F 62% 29.86 in 10.0 mi ESE 12.7 mph - 0.00 in   Clear
12:15 PM 51.8 °F - 37.4 °F 58% 29.85 in 10.0 mi SE 17.3 mph - 0.00 in   Clear
12:35 PM 51.8 °F - 39.2 °F 62% 29.83 in 10.0 mi ESE 18.4 mph 21.9 mph 0.00 in   Clear
12:55 PM 53.6 °F - 41.0 °F 62% 29.82 in 10.0 mi ESE 19.6 mph 25.3 mph 0.00 in   Clear
1:15 PM 53.6 °F - 41.0 °F 62% 29.81 in 10.0 mi ESE 19.6 mph - 0.00 in   Clear
1:35 PM 53.6 °F - 42.8 °F 67% 29.79 in 10.0 mi SE 19.6 mph - 0.00 in   Clear
2:15 PM 57.2 °F - 42.8 °F 59% 29.76 in 10.0 mi SE 21.9 mph 28.8 mph 0.00 in   Clear
2:35 PM 57.2 °F - 44.6 °F 63% 29.74 in 10.0 mi ESE 18.4 mph 27.6 mph 0.00 in   Clear
3:15 PM 59.0 °F - 46.4 °F 63% 29.71 in 10.0 mi SE 21.9 mph 26.5 mph 0.00 in   Clear
3:35 PM 60.8 °F - 46.4 °F 59% 29.69 in 10.0 mi SE 20.7 mph 28.8 mph 0.00 in   Clear
3:55 PM 62.6 °F - 46.4 °F 55% 29.69 in 10.0 mi SE 18.4 mph 27.6 mph 0.00 in   Clear
4:15 PM 62.6 °F - 48.2 °F 59% 29.69 in 10.0 mi SE 17.3 mph 24.2 mph 0.00 in   Clear
5:15 PM 62.6 °F - 50.0 °F 63% 29.65 in 10.0 mi SE 16.1 mph 20.7 mph 0.00 in   Clear
5:35 PM 62.6 °F - 50.0 °F 63% 29.65 in 10.0 mi SE 16.1 mph 21.9 mph 0.00 in   Clear
5:55 PM 62.6 °F - 51.8 °F 68% 29.65 in 10.0 mi SE 13.8 mph - 0.00 in   Clear
6:15 PM 62.6 °F - 51.8 °F 68% 29.64 in 10.0 mi SE 11.5 mph - 0.00 in   Clear
6:35 PM 60.8 °F - 53.6 °F 77% 29.63 in 10.0 mi SE 11.5 mph - 0.00 in   Clear
6:55 PM 59.0 °F - 53.6 °F 82% 29.63 in 10.0 mi SE 10.4 mph - 0.00 in   Clear
7:15 PM 57.2 °F - 53.6 °F 88% 29.62 in 10.0 mi SE 11.5 mph - 0.00 in   Clear
7:35 PM 53.6 °F - 53.6 °F 100% 29.62 in 9.0 mi ESE 9.2 mph - 0.00 in   Clear
7:55 PM 51.8 °F - 51.8 °F 100% 29.61 in 8.0 mi SE 9.2 mph - 0.00 in   Clear
8:15 PM 51.8 °F - 51.8 °F 100% 29.61 in 10.0 mi ESE 11.5 mph - 0.00 in   Clear
8:35 PM 50.0 °F - 50.0 °F 100% 29.60 in 10.0 mi SE 11.5 mph - 0.00 in   Clear
8:55 PM 48.2 °F - 48.2 °F 100% 29.60 in 10.0 mi SE 10.4 mph - 0.00 in   Clear
9:15 PM 48.2 °F - 48.2 °F 100% 29.59 in 8.0 mi SE 10.4 mph - 0.00 in   Clear
9:35 PM 48.2 °F - 48.2 °F 100% 29.59 in 9.0 mi SE 10.4 mph - 0.00 in   Clear
9:55 PM 46.4 °F 42.4 °F 46.4 °F 100% 29.59 in 8.0 mi SE 8.1 mph - 0.00 in   Clear
10:15 PM 46.4 °F 42.4 °F 46.4 °F 100% 29.59 in 7.0 mi SSE 8.1 mph - 0.00 in   Clear
10:55 PM 50.0 °F - 48.2 °F 94% 29.58 in 10.0 mi SSE 11.5 mph - 0.00 in   Clear
11:15 PM 53.6 °F - 46.4 °F 77% 29.57 in 10.0 mi South 16.1 mph - 0.00 in   Clear
11:35 PM 55.4 °F - 46.4 °F 72% 29.56 in 10.0 mi South 16.1 mph - 0.00 in   Clear
11:55 PM 53.6 °F - 46.4 °F 77% 29.56 in 10.0 mi South 11.5 mph - 0.00 in   Clear